Midway, New Mexico
Current Conditions -  °F | °C
As of 2:03 AM on Wednesday 22 Oct 2014 (Local Time) from KROW Reporting Station
Haze Haze  
Wind Chill: 62°   Ceiling: 700
Heat Index: 62°   Visibility: 4mi
Dew Point: 60°   Wind: 5mph
Humidity: 93%   Direction: 180°S
Pressure: 30.08"   Gusts: NA
Location:  33.2058°N, 104.522°W
Report Text: KROW 220803Z AUTO 18004KT 4SM BR BKN007 BKN011 OVC027 17/16 A3008 RMK AO2 T01670156
Loading
Personal Weather Stations






























Interactive Weather Map
Tropical Storm Tracking
New forecast layout! Learn more

10-Day Weather Forecast

Advertisements
Track Severe Weather on mobile